Change the Weather History Date:

Sunday, February 17, 2013

  Actual Average Record
Temperature  
Mean Temperature 32 °F -  
Max Temperature 44 °F 39 °F 69 °F (2011)
Min Temperature 21 °F 21 °F -11 °F (1958)
Degree Days  
Heating Degree Days 32    
Moisture  
Dew Point 17 °F    
Average Humidity 54    
Maximum Humidity 69    
Minimum Humidity 31    
Precipitation  
Precipitation 0.00 in - - ()
Sea Level Pressure  
Sea Level Pressure 30.03 in    
Wind  
Wind Speed 10 mph (SE)    
Max Wind Speed 18 mph    
Max Gust Speed 22 mph    
Visibility 10 miles    
Events      
Averages and records for this station are not official NWS values.
T = Trace of Precipitation, MM = Missing Value Source: NWS Daily Summary

Daily Weather History Graph

Daily Weather History Graph

Search for Another Location

Airport or City:

Trip Planner

Search our weather history database for the weather conditions in past years. The results will help you decide how hot, cold, wet, or windy it might be!

Date:

Astronomy

Feb. 17, 2013 Rise Set
Actual Time 6:56 AM CST 5:43 PM CST
Civil Twilight 6:28 AM CST 6:11 PM CST
Nautical Twilight 5:56 AM CST 6:43 PM CST
Astronomical Twilight 5:25 AM CST 7:15 PM CST
Moon 10:47 AM CST (2/17) 12:41 AM CST (2/17)
Length of Visible Light 11h 43m
Length of Day
10h 47m
Waxing Crescent, 49% of the Moon is Illuminated
Feb 17
Waxing Crescent
Feb 17
First Quarter
Feb 25
Full
Mar 4
Last Quarter
Mar 11
New

Hourly Weather History & Observations

Time (CST) Temp. Windchill Dew Point Humidity Pressure Visibility Wind Dir Wind Speed Gust Speed Precip Events Conditions
12:15 AM 23.0 °F 13.9 °F 14.0 °F 68% 30.16 in 10.0 mi East 8.1 mph - N/A   Clear
12:35 AM 23.0 °F 13.1 °F 14.0 °F 68% 30.16 in 10.0 mi East 9.2 mph - N/A   Clear
12:55 AM 23.0 °F 13.9 °F 14.0 °F 68% 30.16 in 10.0 mi East 8.1 mph - N/A   Clear
1:15 AM 24.8 °F 16.1 °F 14.0 °F 64% 30.16 in 10.0 mi ESE 8.1 mph - N/A   Clear
1:35 AM 23.0 °F 13.1 °F 14.0 °F 68% 30.15 in 10.0 mi ESE 9.2 mph - N/A   Clear
1:55 AM 23.0 °F 13.9 °F 14.0 °F 68% 30.16 in 10.0 mi ESE 8.1 mph - N/A   Clear
2:15 AM 23.0 °F 13.9 °F 12.2 °F 63% 30.15 in 10.0 mi ESE 8.1 mph - N/A   Clear
2:35 AM 23.0 °F 13.9 °F 12.2 °F 63% 30.15 in 10.0 mi ESE 8.1 mph - N/A   Clear
2:55 AM 21.2 °F 12.6 °F 12.2 °F 68% 30.15 in 10.0 mi ESE 6.9 mph - N/A   Clear
3:15 AM 21.2 °F 12.6 °F 12.2 °F 68% 30.15 in 10.0 mi ESE 6.9 mph - N/A   Clear
3:35 AM 21.2 °F 12.6 °F 12.2 °F 68% 30.14 in 10.0 mi ESE 6.9 mph - N/A   Clear
3:55 AM 21.2 °F 11.7 °F 12.2 °F 68% 30.15 in 10.0 mi ESE 8.1 mph - N/A   Clear
4:15 AM 21.2 °F 12.6 °F 12.2 °F 68% 30.15 in 10.0 mi East 6.9 mph - N/A   Clear
4:35 AM 21.2 °F 11.7 °F 12.2 °F 68% 30.14 in 10.0 mi ESE 8.1 mph - N/A   Clear
4:55 AM 21.2 °F 10.9 °F 12.2 °F 68% 30.14 in 10.0 mi ESE 9.2 mph - N/A   Clear
5:15 AM 21.2 °F 11.7 °F 12.2 °F 68% 30.15 in 10.0 mi ESE 8.1 mph - N/A   Clear
5:35 AM 21.2 °F 10.9 °F 12.2 °F 68% 30.14 in 10.0 mi ESE 9.2 mph - N/A   Clear
5:55 AM 21.2 °F 10.9 °F 12.2 °F 68% 30.15 in 10.0 mi ESE 9.2 mph - N/A   Clear
6:15 AM 21.2 °F 10.9 °F 12.2 °F 68% 30.14 in 10.0 mi ESE 9.2 mph - N/A   Clear
6:35 AM 21.2 °F 11.7 °F 12.2 °F 68% 30.14 in 10.0 mi ESE 8.1 mph - N/A   Clear
6:55 AM 21.2 °F 10.1 °F 12.2 °F 68% 30.13 in 10.0 mi ESE 10.4 mph - N/A   Clear
7:15 AM 21.2 °F 10.1 °F 12.2 °F 68% 30.14 in 10.0 mi SE 10.4 mph - N/A   Clear
7:35 AM 23.0 °F 13.1 °F 12.2 °F 63% 30.14 in 10.0 mi ESE 9.2 mph - N/A   Scattered Clouds
7:55 AM 24.8 °F 14.6 °F 14.0 °F 64% 30.13 in 10.0 mi ESE 10.4 mph 16.1 mph N/A   Overcast
8:15 AM 24.8 °F 14.6 °F 15.8 °F 69% 30.14 in 10.0 mi SE 10.4 mph - N/A   Overcast
8:35 AM 24.8 °F 14.6 °F 15.8 °F 69% 30.13 in 10.0 mi ESE 10.4 mph - N/A   Overcast
8:55 AM 26.6 °F 18.2 °F 15.8 °F 64% 30.13 in 10.0 mi SE 8.1 mph - N/A   Mostly Cloudy
9:15 AM 28.4 °F 18.5 °F 17.6 °F 64% 30.13 in 10.0 mi SE 11.5 mph - N/A   Clear
9:35 AM 28.4 °F 19.1 °F 17.6 °F 64% 30.13 in 10.0 mi ESE 10.4 mph - N/A   Clear
9:55 AM 30.2 °F 21.3 °F 17.6 °F 60% 30.13 in 10.0 mi ESE 10.4 mph - N/A   Clear
10:15 AM 32.0 °F 24.2 °F 17.6 °F 55% 30.13 in 10.0 mi SE 9.2 mph - N/A   Clear
10:35 AM 33.8 °F 25.8 °F 17.6 °F 52% 30.13 in 10.0 mi SE 10.4 mph - N/A   Clear
10:55 AM 35.6 °F 28.6 °F 17.6 °F 48% 30.13 in 10.0 mi SSE 9.2 mph - N/A   Scattered Clouds
11:15 AM 37.4 °F 29.8 °F 17.6 °F 45% 30.12 in 10.0 mi SE 11.5 mph - N/A   Mostly Cloudy
11:35 AM 39.2 °F 32.0 °F 19.4 °F 45% 30.10 in 10.0 mi SE 11.5 mph - N/A   Scattered Clouds
11:55 AM 39.2 °F 31.2 °F 17.6 °F 42% 30.09 in 10.0 mi SE 13.8 mph - N/A   Clear
12:15 PM 39.2 °F 31.6 °F 17.6 °F 42% 30.07 in 10.0 mi SE 12.7 mph - N/A   Clear
12:35 PM 41.0 °F 33.5 °F 17.6 °F 39% 30.06 in 10.0 mi SE 13.8 mph 20.7 mph N/A   Clear
12:55 PM 42.8 °F 36.2 °F 17.6 °F 36% 30.04 in 10.0 mi SE 12.7 mph - N/A   Clear
1:15 PM 41.0 °F 33.1 °F 17.6 °F 39% 30.03 in 10.0 mi SE 15.0 mph 21.9 mph N/A   Clear
1:35 PM 42.8 °F 36.2 °F 19.4 °F 39% 30.02 in 10.0 mi SE 12.7 mph - N/A   Clear
1:55 PM 42.8 °F 35.1 °F 17.6 °F 36% 30.01 in 10.0 mi ESE 16.1 mph 21.9 mph N/A   Clear
2:15 PM 42.8 °F 35.8 °F 17.6 °F 36% 30.00 in 10.0 mi SE 13.8 mph 19.6 mph N/A   Clear
2:35 PM 44.6 °F 38.1 °F 15.8 °F 31% 29.99 in 10.0 mi SSE 13.8 mph 20.7 mph N/A   Clear
2:55 PM 44.6 °F 38.1 °F 17.6 °F 34% 29.98 in 10.0 mi SE 13.8 mph 19.6 mph N/A   Clear
3:15 PM 44.6 °F 37.8 °F 17.6 °F 34% 29.97 in 10.0 mi SE 15.0 mph 21.9 mph N/A   Clear
3:35 PM 44.6 °F 38.4 °F 17.6 °F 34% 29.96 in 10.0 mi SE 12.7 mph 19.6 mph N/A   Clear
3:55 PM 44.6 °F 38.1 °F 17.6 °F 34% 29.96 in 10.0 mi SE 13.8 mph 20.7 mph N/A   Clear
4:15 PM 44.6 °F 37.8 °F 17.6 °F 34% 29.95 in 10.0 mi SE 15.0 mph 18.4 mph N/A   Clear
4:35 PM 42.8 °F 36.6 °F 19.4 °F 39% 29.94 in 10.0 mi SE 11.5 mph - N/A   Clear
4:55 PM 42.8 °F 37.5 °F 19.4 °F 39% 29.94 in 10.0 mi SE 9.2 mph - N/A   Clear
5:15 PM 42.8 °F 36.6 °F 19.4 °F 39% 29.93 in 10.0 mi SE 11.5 mph 17.3 mph N/A   Clear
5:35 PM 41.0 °F 33.5 °F 19.4 °F 42% 29.92 in 10.0 mi ESE 13.8 mph - N/A   Clear
5:55 PM 39.2 °F 31.2 °F 19.4 °F 45% 29.92 in 10.0 mi SE 13.8 mph 18.4 mph N/A   Clear
6:15 PM 39.2 °F 31.6 °F 19.4 °F 45% 29.92 in 10.0 mi SE 12.7 mph - N/A   Clear
6:35 PM 39.2 °F 31.2 °F 19.4 °F 45% 29.91 in 10.0 mi SE 13.8 mph - N/A   Clear
6:55 PM 39.2 °F 32.0 °F 19.4 °F 45% 29.91 in 10.0 mi SE 11.5 mph 19.6 mph N/A   Clear
7:15 PM 39.2 °F 32.0 °F 21.2 °F 49% 29.91 in 10.0 mi SE 11.5 mph - N/A   Clear
7:35 PM 39.2 °F 32.0 °F 21.2 °F 49% 29.91 in 10.0 mi SE 11.5 mph - N/A   Clear
7:55 PM 37.4 °F 28.9 °F 21.2 °F 52% 29.90 in 10.0 mi SE 13.8 mph 19.6 mph N/A   Clear
8:15 PM 37.4 °F 29.3 °F 21.2 °F 52% 29.88 in 10.0 mi SE 12.7 mph 18.4 mph N/A   Clear
8:35 PM 37.4 °F 27.5 °F 21.2 °F 52% 29.87 in 10.0 mi SE 18.4 mph 21.9 mph N/A   Clear
8:55 PM 37.4 °F 28.9 °F 21.2 °F 52% 29.87 in 10.0 mi SE 13.8 mph 20.7 mph N/A   Clear
9:15 PM 37.4 °F 28.2 °F 21.2 °F 52% 29.87 in 10.0 mi SE 16.1 mph 21.9 mph N/A   Clear
9:35 PM 37.4 °F 28.9 °F 21.2 °F 52% 29.86 in 10.0 mi SE 13.8 mph 19.6 mph N/A   Clear
9:55 PM 37.4 °F 28.9 °F 21.2 °F 52% 29.85 in 10.0 mi SE 13.8 mph 20.7 mph N/A   Clear
10:15 PM 37.4 °F 29.8 °F 23.0 °F 56% 29.84 in 10.0 mi SE 11.5 mph 18.4 mph N/A   Clear
10:35 PM 37.4 °F 30.3 °F 24.8 °F 60% 29.83 in 10.0 mi SSE 10.4 mph 18.4 mph N/A   Clear
10:55 PM 39.2 °F 32.0 °F 24.8 °F 56% 29.82 in 10.0 mi SE 11.5 mph - N/A   Clear
11:15 PM 39.2 °F 32.0 °F 24.8 °F 56% 29.81 in 10.0 mi SE 11.5 mph 17.3 mph N/A   Clear
11:35 PM 39.2 °F 32.0 °F 26.6 °F 61% 29.81 in 10.0 mi SSE 11.5 mph 18.4 mph N/A   Clear
11:55 PM 39.2 °F 31.6 °F 26.6 °F 61% 29.81 in 10.0 mi SSE 12.7 mph 16.1 mph N/A   Clear